createdAt,value
2022-09-15T16:09:39.696Z,98429.69
2022-09-15T16:12:08.239Z,98412.81
2022-09-15T16:34:17.981Z,98379.38
2022-09-15T16:36:44.754Z,98371.94
2022-09-15T16:39:11.534Z,98373.34
2022-09-15T16:41:39.429Z,98363.19
2022-09-15T16:44:16.026Z,98365.22
2022-09-15T16:46:42.730Z,98368.22
2022-09-15T16:49:09.596Z,98363.97
2022-09-15T17:06:55.354Z,98355.03
2022-09-15T17:09:22.226Z,98352.75
2022-09-15T17:11:49.087Z,98346.59
2022-09-15T17:14:17.202Z,98342.22
2022-09-15T17:16:47.469Z,98337.97
2022-09-15T17:19:14.406Z,98330.69
2022-09-15T17:21:41.586Z,98343.94
2022-09-15T17:24:09.276Z,98342.91
2022-09-15T17:26:36.096Z,98355.03
2022-09-15T17:29:03.019Z,98350.50
2022-09-15T17:31:30.034Z,98354.00
2022-09-15T17:33:57.247Z,98355.63
2022-09-15T17:36:24.266Z,98343.25
2022-09-15T17:38:51.166Z,98352.91
2022-09-15T17:41:20.601Z,98341.47
2022-09-15T17:43:47.968Z,98346.47
2022-09-15T17:46:15.513Z,98345.03
2022-09-15T17:48:42.608Z,98344.78
2022-09-15T17:51:15.767Z,98350.78
2022-09-15T17:53:43.088Z,98346.34
2022-09-15T17:56:10.007Z,98355.06
2022-09-15T17:58:37.046Z,98348.81
2022-09-15T18:01:04.116Z,98347.00
2022-09-15T18:03:37.119Z,98347.38
2022-09-15T18:06:08.556Z,98350.94
2022-09-15T18:08:36.398Z,98350.88
2022-09-15T18:11:04.608Z,98339.72
2022-09-15T18:13:32.111Z,98346.47
2022-09-15T18:16:04.954Z,98355.22
2022-09-15T18:18:31.877Z,98353.59
2022-09-15T18:20:59.026Z,98359.72
2022-09-15T18:23:29.704Z,98355.31
2022-09-15T18:25:57.247Z,98363.25
2022-09-15T18:28:24.140Z,98358.81
2022-09-15T18:30:51.498Z,98355.31
2022-09-15T18:33:21.304Z,98356.22
2022-09-15T18:35:50.035Z,98359.81
2022-09-15T18:38:17.906Z,98362.78
2022-09-15T18:40:56.114Z,98367.50
2022-09-15T18:43:25.322Z,98369.13
2022-09-15T18:45:55.195Z,98364.94
2022-09-15T18:48:22.111Z,98363.84
2022-09-15T18:50:49.087Z,98368.28
2022-09-15T18:53:16.017Z,98371.78
2022-09-15T18:55:43.447Z,98375.38
2022-09-15T18:58:11.546Z,98375.38
2022-09-15T19:00:39.054Z,98371.97
2022-09-15T19:03:09.683Z,98372.72
2022-09-15T19:05:37.199Z,98364.59
2022-09-15T19:08:04.599Z,98367.31
2022-09-15T19:10:31.594Z,98365.81
2022-09-15T19:12:58.424Z,98365.56
2022-09-15T19:15:25.286Z,98356.66
2022-09-15T19:17:52.356Z,98364.50
2022-09-15T19:20:19.390Z,98361.00
2022-09-15T19:22:46.477Z,98371.59
2022-09-15T19:25:14.010Z,98366.31
2022-09-15T19:27:41.711Z,98364.59
2022-09-15T19:30:12.336Z,98370.75
2022-09-15T19:32:40.016Z,98373.38
2022-09-15T19:35:08.473Z,98367.44
2022-09-15T19:37:39.877Z,98367.50
2022-09-15T19:40:10.027Z,98365.81
2022-09-15T19:42:38.710Z,98361.69
2022-09-15T19:45:06.497Z,98369.63
2022-09-15T19:47:33.782Z,98367.84
2022-09-15T19:50:00.737Z,98374.16
2022-09-15T19:52:28.474Z,98369.03
2022-09-15T19:54:58.054Z,98369.13
2022-09-15T19:57:24.966Z,98372.47
2022-09-15T19:59:51.918Z,98370.56
2022-09-15T20:02:20.170Z,98377.56
2022-09-15T20:04:47.863Z,98366.91
2022-09-15T20:07:15.267Z,98358.97
2022-09-15T20:09:42.492Z,98358.97
2022-09-15T20:12:09.617Z,98355.56
2022-09-15T20:14:36.699Z,98363.56
2022-09-15T20:17:04.239Z,98365.34
2022-09-15T20:19:31.201Z,98362.63
2022-09-15T20:21:58.413Z,98368.88
2022-09-15T20:24:25.784Z,98361.81
2022-09-15T20:26:52.833Z,98371.16
2022-09-15T20:29:20.564Z,98369.31
2022-09-15T20:31:48.245Z,98376.97
2022-09-15T20:34:15.543Z,98395.44
2022-09-15T20:36:42.799Z,98389.19
2022-09-15T20:39:13.615Z,98400.56
2022-09-15T20:41:42.400Z,98400.56
2022-09-15T20:44:09.636Z,98408.50
2022-09-15T20:46:36.787Z,98415.44
2022-09-15T20:49:05.048Z,98426.84
2022-09-15T20:51:33.844Z,98435.69
2022-09-15T20:54:03.663Z,98443.47
2022-09-15T20:56:32.359Z,98449.53
2022-09-15T20:59:00.810Z,98453.13
2022-09-15T21:01:32.055Z,98445.94
2022-09-15T21:03:59.205Z,98451.50
2022-09-15T21:06:28.043Z,98448.78
2022-09-15T21:08:59.003Z,98446.69
2022-09-15T21:11:27.879Z,98442.75
2022-09-15T21:13:56.073Z,98440.69
2022-09-15T21:16:26.200Z,98425.22
2022-09-15T21:18:53.996Z,98423.09
2022-09-15T21:21:23.507Z,98415.47
2022-09-15T21:24:00.557Z,98403.34
2022-09-15T21:26:58.373Z,98398.72
2022-09-15T21:29:26.645Z,98388.63
2022-09-15T21:31:55.934Z,98387.69
2022-09-15T21:34:24.146Z,98390.00
2022-09-15T21:36:52.016Z,98405.72
2022-09-15T21:39:19.187Z,98403.69
2022-09-15T21:41:46.128Z,98393.88
2022-09-15T21:44:13.253Z,98375.00
2022-09-15T21:46:40.201Z,98400.53
2022-09-15T21:49:08.302Z,98419.66
2022-09-15T21:51:35.346Z,98425.81
2022-09-15T21:54:02.351Z,98417.88
2022-09-15T21:56:30.482Z,98409.00
2022-09-15T21:58:57.646Z,98401.00
2022-09-15T22:01:28.080Z,98391.47
2022-09-15T22:04:04.647Z,98394.06
2022-09-15T22:06:34.476Z,98382.69
2022-09-15T22:09:04.873Z,98371.00
2022-09-15T22:11:31.962Z,98370.22
2022-09-15T22:13:59.235Z,98377.06
2022-09-15T22:16:26.479Z,98378.88
2022-09-15T22:18:53.842Z,98378.69
2022-09-15T22:21:26.447Z,98369.03
2022-09-15T22:23:57.733Z,98396.28
2022-09-15T22:26:27.560Z,98395.59
2022-09-15T22:28:55.389Z,98398.06
2022-09-15T22:31:24.309Z,98402.41
2022-09-15T22:33:52.374Z,98391.75
2022-09-15T22:36:26.468Z,98402.53
2022-09-15T22:38:56.763Z,98412.34
2022-09-15T22:41:26.003Z,98430.09
2022-09-15T22:43:53.028Z,98425.75
2022-09-15T22:46:21.265Z,98442.28
2022-09-15T22:48:48.380Z,98459.28
2022-09-15T22:51:15.938Z,98483.81
2022-09-15T22:53:43.317Z,98482.09
2022-09-15T22:56:22.148Z,98486.53
2022-09-15T22:58:50.614Z,98496.34
2022-09-15T23:01:20.436Z,98499.06
2022-09-15T23:03:54.849Z,98504.53
2022-09-15T23:06:23.406Z,98510.16
2022-09-15T23:08:54.929Z,98509.44
2022-09-15T23:11:22.912Z,98508.75
2022-09-15T23:13:52.317Z,98524.94
2022-09-15T23:16:19.650Z,98522.91
2022-09-15T23:18:47.002Z,98529.16
2022-09-15T23:21:14.636Z,98530.03
2022-09-15T23:23:43.466Z,98533.81
2022-09-15T23:26:12.028Z,98525.13
2022-09-15T23:28:39.410Z,98520.75
2022-09-15T23:31:07.656Z,98533.31
2022-09-15T23:33:34.937Z,98523.59
2022-09-15T23:36:03.221Z,98528.13
2022-09-15T23:38:30.388Z,98550.22
2022-09-15T23:40:58.005Z,98553.06
2022-09-15T23:43:25.043Z,98549.03
2022-09-15T23:45:52.130Z,98556.25
2022-09-15T23:48:19.318Z,98557.94
2022-09-15T23:50:46.719Z,98569.44
2022-09-15T23:53:13.714Z,98565.94
2022-09-15T23:55:40.896Z,98597.09
2022-09-15T23:58:07.923Z,98584.81
